Hauptseite
METAR-TAF:

METAR-TAF

Flughäfen :

Heeresflugplatz Fritzlar

Fritzlar, Deutschland

Breite: 51-07N, Länge: 009-17E, Höhe: 172 m

Beobachtung

Neuester Wetterbericht von vor 20 Minuten, um 04:20 UTC
Wind 2 kt aus Südwest
Temperatur 2°C
Luftfeuchtigkeit 100%
Luftdruck 1024 hPa
Sichtweite: 0100 m
Nebel

METAR: ETHF 180420Z 22002KT 0100 FG VV001 02/02 Q1024 RED

Zeit: 06:40 (04:40 UTC)

Prognose

Neuester Wetterbericht von vor 20 Minuten, um 04:20 UTC
Gültige Prognose vom 18 um 05 UTC bis 18 um 14 UTC
Wind 1 kt aus unterschiedlichen Richtungen
Sichtweite: 0100 m
in der Höhe von 100 ft
Nebel
Übergehend zu
vom 18 um 09 UTC bis 18 um 11 UTC
Wind 5 kt aus Süd
Sichtweite: 8000 m
Leicht bewölkt in der Höhe von 1200 ft
Aufgelockert bewölkt in der Höhe von 8000 ft

TAF: ETHF 180420Z 1805/1814 VRB01KT 0100 FG VV001 BECMG 1809/1811 18005KT 8000 NSW FEW012 SCT080

Wetterbeobachtungen und Prognosen von mehr als 4000 Flughäfen (METAR und TAF Bericht).

Die verfügbaren Stationen werden durch gelbe und rote Markierungen auf der Karte dargestellt.

Führen Sie die Maus auf sie, um den Namen der Station zu sehen.

Darauf klicken, um die Beobachtung von Wetterbeobachtungen und Prognosen zu sehen.

Um die Karte zu ändern : klicken Sie auf den grünen Tasten mit einem schwarzen Kreuz Zum Vergrößern, auf den grünen Button mit einem Gedankenstrich zu verkleinern, oder auf die grünen Pfeile für benachbarte Karten.


METAR-TAF: